Time;durP1;ratioP1;P1;durP2;ratioP2;P2;SDS_P1;SDS_P2;PMS_P1;PMS_P2;Temp;Humidity;BMP_temperature;BMP_pressure;BME280_temperature;BME280_humidity;BME280_pressure;Samples;Min_cycle;Max_cycle;Signal;HPM_P1;HPM_P2
2023/06/30 00:01:39;;;;;;;;;;;13.60;99.90;;;;;;5090123;28;20050;-80
2023/06/30 00:04:05;;;;;;;;;;;13.60;99.90;;;;;;5090360;28;19939;-78
2023/06/30 00:06:33;;;;;;;;;;;13.50;99.90;;;;;;5091646;28;19916;-79
2023/06/30 00:08:59;;;;;;;;;;;13.50;99.90;;;;;;5073668;28;19916;-78
2023/06/30 00:11:25;;;;;;;;;;;13.50;99.90;;;;;;5089637;28;20022;-79
2023/06/30 00:13:51;;;;;;;;;;;13.50;99.90;;;;;;5089894;28;20364;-79
2023/06/30 00:16:17;;;;;;;;;;;13.50;99.90;;;;;;5089517;28;19916;-77
2023/06/30 00:18:42;;;;;;;;;;;13.40;99.90;;;;;;5107188;28;19957;-77
2023/06/30 00:21:08;;;;;;;;;;;13.40;99.90;;;;;;5090246;28;20254;-78
2023/06/30 00:23:33;;;;;;;;;;;13.30;99.90;;;;;;5089757;28;19916;-78
2023/06/30 00:26:01;;;;;;;;;;;13.30;99.90;;;;;;5091411;28;19963;-77
2023/06/30 00:28:27;;;;;;;;;;;13.30;99.90;;;;;;5076410;28;20422;-78
2023/06/30 00:30:52;;;;;;;;;;;13.30;99.90;;;;;;5093587;28;19920;-80
2023/06/30 00:33:18;;;;;;;;;;;13.20;99.90;;;;;;5093458;28;19985;-77
2023/06/30 00:35:43;;;;;;;;;;;13.20;99.90;;;;;;5093889;28;20015;-76
2023/06/30 00:38:09;;;;;;;;;;;13.20;99.90;;;;;;5093229;28;19924;-77
2023/06/30 00:40:35;;;;;;;;;;;13.20;99.90;;;;;;5076200;28;19937;-79
2023/06/30 00:43:00;;;;;;;;;;;13.20;99.90;;;;;;5093350;28;19923;-78
2023/06/30 00:45:26;;;;;;;;;;;13.20;99.90;;;;;;5076253;28;20333;-78
2023/06/30 00:47:52;;;;;;;;;;;13.10;99.90;;;;;;5093356;28;19949;-77
2023/06/30 00:50:18;;;;;;;;;;;13.10;99.90;;;;;;5092640;28;19923;-79
2023/06/30 00:52:45;;;;;;;;;;;13.00;99.90;;;;;;5093427;28;19938;-78
2023/06/30 00:55:11;;;;;;;;;;;13.10;99.90;;;;;;5076175;28;19916;-77
2023/06/30 00:57:37;;;;;;;;;;;13.10;99.90;;;;;;5092762;28;20429;-77
2023/06/30 01:00:11;;;;;;;;;;;13.10;99.90;;;;;;5093344;28;19916;-80
2023/06/30 01:02:44;;;;;;;;;;;13.10;99.90;;;;;;5126752;27;20276;-78
2023/06/30 01:05:16;;;;;;;;;;;13.10;99.90;;;;;;5093263;28;19997;-77
2023/06/30 01:07:50;;;;;;;;;;;13.00;99.90;;;;;;5110086;28;19923;-78
2023/06/30 01:10:17;;;;;;;;;;;13.00;99.90;;;;;;5092430;28;19923;-78
2023/06/30 01:12:44;;;;;;;;;;;13.00;99.90;;;;;;5093047;28;19943;-79
2023/06/30 01:15:10;;;;;;;;;;;13.00;99.90;;;;;;5093122;28;20362;-78
2023/06/30 01:17:41;;;;;;;;;;;13.10;99.90;;;;;;5092573;28;19916;-80
2023/06/30 01:20:10;;;;;;;;;;;13.00;99.90;;;;;;5076419;28;19924;-75
2023/06/30 01:22:39;;;;;;;;;;;13.00;99.90;;;;;;5091716;28;19923;-77
2023/06/30 01:25:13;;;;;;;;;;;13.00;99.90;;;;;;5092910;28;20053;-78
2023/06/30 01:27:40;;;;;;;;;;;13.00;99.90;;;;;;5126636;27;19916;-81
2023/06/30 01:30:06;;;;;;;;;;;12.90;99.90;;;;;;5092513;28;19916;-80
2023/06/30 01:32:32;;;;;;;;;;;13.00;99.90;;;;;;5092061;28;19922;-78
2023/06/30 01:34:57;;;;;;;;;;;13.00;99.90;;;;;;5092646;28;19924;-77
2023/06/30 01:37:25;;;;;;;;;;;12.90;99.90;;;;;;5091696;28;19927;-76
2023/06/30 01:39:50;;;;;;;;;;;12.90;99.90;;;;;;5075501;28;20010;-77
2023/06/30 01:42:17;;;;;;;;;;;12.90;99.90;;;;;;5091360;28;20019;-78
2023/06/30 01:44:43;;;;;;;;;;;12.80;99.90;;;;;;5091978;28;19926;-79
2023/06/30 01:47:09;;;;;;;;;;;12.80;99.90;;;;;;5092641;28;19919;-78
2023/06/30 01:49:35;;;;;;;;;;;12.80;99.90;;;;;;5091577;28;20383;-77
2023/06/30 01:52:01;;;;;;;;;;;12.80;99.90;;;;;;5091329;28;19920;-77
2023/06/30 01:54:26;;;;;;;;;;;12.70;99.90;;;;;;5091376;28;19916;-78
2023/06/30 01:56:52;;;;;;;;;;;12.70;99.90;;;;;;5091311;28;20010;-77
2023/06/30 01:59:17;;;;;;;;;;;12.60;99.90;;;;;;5074331;28;19932;-79
2023/06/30 02:01:43;;;;;;;;;;;12.60;99.90;;;;;;5091660;28;19922;-77
2023/06/30 02:04:09;;;;;;;;;;;12.50;99.90;;;;;;5091710;28;19981;-77
2023/06/30 02:06:35;;;;;;;;;;;12.50;99.90;;;;;;5091234;28;20003;-76
2023/06/30 02:09:00;;;;;;;;;;;12.50;99.90;;;;;;5091572;28;20006;-76
2023/06/30 02:11:26;;;;;;;;;;;12.50;99.90;;;;;;5074651;28;19916;-79
2023/06/30 02:13:51;;;;;;;;;;;12.50;99.90;;;;;;5091608;28;20411;-77
2023/06/30 02:16:17;;;;;;;;;;;12.50;99.90;;;;;;5091796;28;19924;-76
2023/06/30 02:18:43;;;;;;;;;;;12.40;99.90;;;;;;5090974;28;20440;-78
2023/06/30 02:21:09;;;;;;;;;;;12.40;99.90;;;;;;5091449;28;19923;-78
2023/06/30 02:23:34;;;;;;;;;;;12.40;99.90;;;;;;5090960;28;20391;-78
2023/06/30 02:26:00;;;;;;;;;;;12.30;99.90;;;;;;5091767;28;19968;-75
2023/06/30 02:28:25;;;;;;;;;;;12.30;99.90;;;;;;5090954;28;19920;-80
2023/06/30 02:30:55;;;;;;;;;;;12.20;99.90;;;;;;5092851;28;20066;-76
2023/06/30 02:33:21;;;;;;;;;;;12.20;99.90;;;;;;5074200;28;19923;-78
2023/06/30 02:35:46;;;;;;;;;;;12.20;99.90;;;;;;5091042;28;19920;-77
2023/06/30 02:38:12;;;;;;;;;;;12.10;99.90;;;;;;5091059;28;19930;-78
2023/06/30 02:40:37;;;;;;;;;;;12.10;99.90;;;;;;5073935;28;20285;-79
2023/06/30 02:43:03;;;;;;;;;;;12.10;99.90;;;;;;5091286;28;19916;-79
2023/06/30 02:45:28;;;;;;;;;;;12.20;99.90;;;;;;5090671;28;19920;-78
2023/06/30 02:47:54;;;;;;;;;;;12.10;99.90;;;;;;5090678;28;19920;-80
2023/06/30 02:50:27;;;;;;;;;;;12.10;99.90;;;;;;5090329;28;20023;-79
2023/06/30 02:52:53;;;;;;;;;;;12.10;99.90;;;;;;5090988;28;19920;-80
2023/06/30 02:55:18;;;;;;;;;;;12.10;99.90;;;;;;5090670;28;20453;-79
2023/06/30 02:57:44;;;;;;;;;;;12.10;99.90;;;;;;5073236;28;19928;-80
2023/06/30 03:00:10;;;;;;;;;;;12.10;99.90;;;;;;5090818;28;19916;-80
2023/06/30 03:02:36;;;;;;;;;;;12.00;99.90;;;;;;5090362;28;19916;-77
2023/06/30 03:05:01;;;;;;;;;;;12.00;99.90;;;;;;5090691;28;19969;-78
2023/06/30 03:07:27;;;;;;;;;;;12.00;99.90;;;;;;5089780;28;19920;-80
2023/06/30 03:09:52;;;;;;;;;;;12.00;99.90;;;;;;5090314;28;19920;-77
2023/06/30 03:12:18;;;;;;;;;;;12.00;99.90;;;;;;5090180;28;20392;-78
2023/06/30 03:14:44;;;;;;;;;;;12.00;99.90;;;;;;5089254;28;20558;-78
2023/06/30 03:17:10;;;;;;;;;;;11.90;99.90;;;;;;5089853;28;20072;-80
2023/06/30 03:19:35;;;;;;;;;;;11.90;99.90;;;;;;5089817;28;20020;-78
2023/06/30 03:22:01;;;;;;;;;;;11.90;99.90;;;;;;5090202;28;19916;-77
2023/06/30 03:24:26;;;;;;;;;;;11.90;99.90;;;;;;5073587;28;19916;-78
2023/06/30 03:26:52;;;;;;;;;;;11.90;99.90;;;;;;5073794;28;20305;-78
2023/06/30 03:29:17;;;;;;;;;;;11.90;99.90;;;;;;5090710;28;19964;-78
2023/06/30 03:31:43;;;;;;;;;;;11.80;99.90;;;;;;5089903;28;20775;-80
2023/06/30 03:34:08;;;;;;;;;;;11.80;99.90;;;;;;5073313;28;20064;-77
2023/06/30 03:36:34;;;;;;;;;;;11.80;99.90;;;;;;5090034;28;19920;-78
2023/06/30 03:39:00;;;;;;;;;;;11.80;99.90;;;;;;5090057;28;19934;-79
2023/06/30 03:41:26;;;;;;;;;;;11.80;99.90;;;;;;5090028;28;20015;-80
2023/06/30 03:43:52;;;;;;;;;;;11.90;99.90;;;;;;5090426;28;19923;-79
2023/06/30 03:46:17;;;;;;;;;;;11.90;99.90;;;;;;5090156;28;19924;-78
2023/06/30 03:48:43;;;;;;;;;;;12.00;99.90;;;;;;5090214;28;20038;-78
2023/06/30 03:51:09;;;;;;;;;;;12.00;99.90;;;;;;5090024;28;20007;-78
2023/06/30 03:53:34;;;;;;;;;;;12.00;99.90;;;;;;5090175;28;19920;-78
2023/06/30 03:56:00;;;;;;;;;;;12.00;99.90;;;;;;5090260;28;19920;-77
2023/06/30 03:58:27;;;;;;;;;;;12.00;99.90;;;;;;5090409;28;19920;-76
2023/06/30 04:00:53;;;;;;;;;;;12.10;99.90;;;;;;5093633;28;19929;-77
2023/06/30 04:03:18;;;;;;;;;;;12.10;99.90;;;;;;5077432;28;20379;-78
2023/06/30 04:05:44;;;;;;;;;;;12.20;99.90;;;;;;5093608;28;19927;-81
2023/06/30 04:08:09;;;;;;;;;;;12.20;99.90;;;;;;5094707;28;19967;-76
2023/06/30 04:10:35;;;;;;;;;;;12.20;99.90;;;;;;5094180;28;19920;-78
2023/06/30 04:13:04;;;;;;;;;;;12.30;99.90;;;;;;5111139;28;20044;-78
2023/06/30 04:15:30;;;;;;;;;;;12.30;99.90;;;;;;5093997;28;20637;-78
2023/06/30 04:17:55;;;;;;;;;;;12.40;99.90;;;;;;5076936;28;19919;-78
2023/06/30 04:20:21;;;;;;;;;;;12.40;99.90;;;;;;5076825;28;20372;-76
2023/06/30 04:22:47;;;;;;;;;;;12.50;99.90;;;;;;5094842;28;19916;-80
2023/06/30 04:25:19;;;;;;;;;;;12.50;99.90;;;;;;5094057;28;19926;-78
2023/06/30 04:27:44;;;;;;;;;;;12.60;99.90;;;;;;5093586;28;19920;-80
2023/06/30 04:30:10;;;;;;;;;;;12.70;99.90;;;;;;5094064;28;20011;-78
2023/06/30 04:32:36;;;;;;;;;;;12.70;99.90;;;;;;5093069;28;20436;-77
2023/06/30 04:35:01;;;;;;;;;;;12.80;99.90;;;;;;5093311;28;19924;-75
2023/06/30 04:37:30;;;;;;;;;;;12.80;99.90;;;;;;5110489;28;20457;-77
2023/06/30 04:39:56;;;;;;;;;;;12.90;99.90;;;;;;5092997;28;19928;-79
2023/06/30 04:42:22;;;;;;;;;;;12.90;99.90;;;;;;5093215;28;20417;-77
2023/06/30 04:44:47;;;;;;;;;;;13.00;99.90;;;;;;5093044;28;19966;-77
2023/06/30 04:47:15;;;;;;;;;;;13.00;99.90;;;;;;5093073;28;20345;-78
2023/06/30 04:49:41;;;;;;;;;;;13.10;99.90;;;;;;5092118;28;19916;-76
2023/06/30 04:52:06;;;;;;;;;;;13.20;99.90;;;;;;5093105;28;19942;-79
2023/06/30 04:54:32;;;;;;;;;;;13.20;99.90;;;;;;5092322;28;19969;-78
2023/06/30 04:56:58;;;;;;;;;;;13.30;99.90;;;;;;5092914;28;19971;-77
2023/06/30 04:59:23;;;;;;;;;;;13.30;99.90;;;;;;5092925;28;19938;-78
2023/06/30 05:01:55;;;;;;;;;;;13.40;99.90;;;;;;5092756;28;19937;-77
2023/06/30 05:04:20;;;;;;;;;;;13.50;99.90;;;;;;5093042;28;19923;-79
2023/06/30 05:06:46;;;;;;;;;;;13.60;99.90;;;;;;5092737;28;19927;-78
2023/06/30 05:09:11;;;;;;;;;;;13.60;99.90;;;;;;5092484;28;20373;-76
2023/06/30 05:11:37;;;;;;;;;;;13.70;99.90;;;;;;5091521;28;19920;-78
2023/06/30 05:14:03;;;;;;;;;;;13.80;99.90;;;;;;5092728;28;19916;-78
2023/06/30 05:16:28;;;;;;;;;;;13.80;99.90;;;;;;5092746;28;19927;-79
2023/06/30 05:18:54;;;;;;;;;;;13.90;99.90;;;;;;5074639;28;19924;-76
2023/06/30 05:21:19;;;;;;;;;;;14.00;99.90;;;;;;5075549;28;19920;-77
2023/06/30 05:23:45;;;;;;;;;;;14.10;99.90;;;;;;5092165;28;20006;-78
2023/06/30 05:26:11;;;;;;;;;;;14.20;99.90;;;;;;5092789;28;19927;-77
2023/06/30 05:28:36;;;;;;;;;;;14.20;99.90;;;;;;5092349;28;19920;-78
2023/06/30 05:31:02;;;;;;;;;;;14.30;99.90;;;;;;5092917;28;19916;-79
2023/06/30 05:33:33;;;;;;;;;;;14.40;99.90;;;;;;5076968;28;19923;-77
2023/06/30 05:35:59;;;;;;;;;;;14.50;99.90;;;;;;5091715;28;19920;-77
2023/06/30 05:38:24;;;;;;;;;;;14.60;99.90;;;;;;5075306;28;19926;-77
2023/06/30 05:40:50;;;;;;;;;;;14.60;99.90;;;;;;5075193;28;19919;-79
2023/06/30 05:43:17;;;;;;;;;;;14.70;99.90;;;;;;5092141;28;19941;-81
2023/06/30 05:45:43;;;;;;;;;;;14.80;99.90;;;;;;5092247;28;20038;-78
2023/06/30 05:48:09;;;;;;;;;;;14.90;99.90;;;;;;5092319;28;20006;-77
2023/06/30 05:50:34;;;;;;;;;;;15.00;99.90;;;;;;5092035;28;19995;-79
2023/06/30 05:53:00;;;;;;;;;;;15.10;99.90;;;;;;5092232;28;19939;-78
2023/06/30 05:55:26;;;;;;;;;;;15.20;99.90;;;;;;5075648;28;20434;-79
2023/06/30 05:57:51;;;;;;;;;;;15.30;99.90;;;;;;5093201;28;19943;-76
2023/06/30 06:00:17;;;;;;;;;;;15.40;99.90;;;;;;5075346;28;19922;-77
2023/06/30 06:02:42;;;;;;;;;;;15.50;99.90;;;;;;5091542;28;19916;-76
2023/06/30 06:05:08;;;;;;;;;;;15.60;99.90;;;;;;5092234;28;19992;-78
2023/06/30 06:07:34;;;;;;;;;;;15.60;99.90;;;;;;5091877;28;20587;-78
2023/06/30 06:10:00;;;;;;;;;;;15.70;99.90;;;;;;5091391;28;19959;-80
2023/06/30 06:12:25;;;;;;;;;;;15.70;99.90;;;;;;5074530;28;19963;-79
2023/06/30 06:14:51;;;;;;;;;;;15.80;99.90;;;;;;5092657;28;19973;-79
2023/06/30 06:17:16;;;;;;;;;;;15.80;99.90;;;;;;5091939;28;19942;-79
2023/06/30 06:19:42;;;;;;;;;;;15.90;99.90;;;;;;5108533;28;19930;-79
2023/06/30 06:22:08;;;;;;;;;;;15.90;99.90;;;;;;5091852;28;19919;-79
2023/06/30 06:24:33;;;;;;;;;;;16.00;99.90;;;;;;5090167;28;20633;-79
2023/06/30 06:27:00;;;;;;;;;;;16.00;99.90;;;;;;5090611;28;19920;-80
2023/06/30 06:29:26;;;;;;;;;;;16.20;99.90;;;;;;5091047;28;19916;-76
2023/06/30 06:31:52;;;;;;;;;;;16.30;99.90;;;;;;5090344;28;19965;-77
2023/06/30 06:34:18;;;;;;;;;;;16.40;99.90;;;;;;5091663;28;20203;-76
2023/06/30 06:36:44;;;;;;;;;;;16.50;99.90;;;;;;5090893;28;19969;-80
2023/06/30 06:39:10;;;;;;;;;;;16.60;99.90;;;;;;5091104;28;19919;-76
2023/06/30 06:41:36;;;;;;;;;;;16.70;99.90;;;;;;5073759;28;19920;-78
2023/06/30 06:44:02;;;;;;;;;;;16.80;99.90;;;;;;5090744;28;19962;-79
2023/06/30 06:46:28;;;;;;;;;;;17.00;99.90;;;;;;5091136;28;19924;-76
2023/06/30 06:48:54;;;;;;;;;;;17.10;99.90;;;;;;5090735;28;19916;-78
2023/06/30 06:51:20;;;;;;;;;;;17.30;99.90;;;;;;5090736;28;20422;-77
2023/06/30 06:53:46;;;;;;;;;;;17.40;99.90;;;;;;5090492;28;19916;-78
2023/06/30 06:56:13;;;;;;;;;;;17.40;99.90;;;;;;5091094;28;20032;-80
2023/06/30 06:58:38;;;;;;;;;;;17.50;99.90;;;;;;5090831;28;20057;-79
2023/06/30 07:01:04;;;;;;;;;;;17.70;99.90;;;;;;5073733;28;20634;-79
2023/06/30 07:03:30;;;;;;;;;;;17.80;99.90;;;;;;5090945;28;19922;-78
2023/06/30 07:05:56;;;;;;;;;;;17.90;99.90;;;;;;5090704;28;19920;-77
2023/06/30 07:08:22;;;;;;;;;;;17.90;99.90;;;;;;5090938;28;20304;-80
2023/06/30 07:10:48;;;;;;;;;;;18.00;99.90;;;;;;5090104;28;19924;-81
2023/06/30 07:13:18;;;;;;;;;;;18.00;99.90;;;;;;5090712;28;19920;-80
2023/06/30 07:15:45;;;;;;;;;;;18.00;99.90;;;;;;5090625;28;19919;-77
2023/06/30 07:18:11;;;;;;;;;;;18.10;99.90;;;;;;5090600;28;19931;-78
2023/06/30 07:20:36;;;;;;;;;;;18.00;99.90;;;;;;5091012;28;19939;-81
2023/06/30 07:23:02;;;;;;;;;;;18.00;99.90;;;;;;5090476;28;19924;-78
2023/06/30 07:25:34;;;;;;;;;;;17.90;99.90;;;;;;5091102;28;19927;-80
2023/06/30 07:27:59;;;;;;;;;;;17.80;99.90;;;;;;5090496;28;19919;-80
2023/06/30 07:30:25;;;;;;;;;;;17.80;99.90;;;;;;5091228;28;19938;-79
2023/06/30 07:32:51;;;;;;;;;;;17.80;99.90;;;;;;5089836;28;19959;-77
2023/06/30 07:35:17;;;;;;;;;;;17.80;99.90;;;;;;5093110;28;20297;-79
2023/06/30 07:37:46;;;;;;;;;;;17.80;99.90;;;;;;5094914;28;20364;-80
2023/06/30 07:40:12;;;;;;;;;;;17.90;99.90;;;;;;5094359;28;19924;-80
2023/06/30 07:42:38;;;;;;;;;;;17.90;99.90;;;;;;5094657;28;20011;-77
2023/06/30 07:45:09;;;;;;;;;;;18.00;99.90;;;;;;5094246;28;19920;-79
2023/06/30 07:47:36;;;;;;;;;;;18.10;99.90;;;;;;5094456;28;20007;-80
2023/06/30 07:50:12;;;;;;;;;;;18.30;99.90;;;;;;5128024;27;19926;-79
2023/06/30 07:52:42;;;;;;;;;;;18.60;99.90;;;;;;5096378;28;19920;-80
2023/06/30 07:55:08;;;;;;;;;;;18.80;99.90;;;;;;5094205;28;19924;-80
2023/06/30 07:57:34;;;;;;;;;;;18.90;99.90;;;;;;5094730;28;20336;-80
2023/06/30 08:00:00;;;;;;;;;;;18.90;99.90;;;;;;5128057;27;19971;-81
2023/06/30 08:02:26;;;;;;;;;;;18.80;99.90;;;;;;5077668;28;20430;-80
2023/06/30 08:04:51;;;;;;;;;;;18.50;99.90;;;;;;5128289;27;20304;-80
2023/06/30 08:07:17;;;;;;;;;;;18.30;99.90;;;;;;5128370;27;19930;-77
2023/06/30 08:09:43;;;;;;;;;;;18.40;99.90;;;;;;5111713;28;19939;-80
2023/06/30 08:12:09;;;;;;;;;;;18.50;99.90;;;;;;5095255;28;20357;-80
2023/06/30 08:14:35;;;;;;;;;;;18.70;99.90;;;;;;5094620;28;19920;-79
2023/06/30 08:17:03;;;;;;;;;;;18.60;99.90;;;;;;5094068;28;19916;-80
2023/06/30 08:19:29;;;;;;;;;;;18.50;99.90;;;;;;5094311;28;19927;-77
2023/06/30 08:21:55;;;;;;;;;;;18.70;99.90;;;;;;5093790;28;19916;-81
2023/06/30 08:24:20;;;;;;;;;;;18.80;99.90;;;;;;5128344;27;20421;-77
2023/06/30 08:26:46;;;;;;;;;;;18.80;99.90;;;;;;5094182;28;19923;-80
2023/06/30 08:29:12;;;;;;;;;;;18.90;99.90;;;;;;5093895;28;20000;-79
2023/06/30 08:31:37;;;;;;;;;;;19.10;99.90;;;;;;5076832;28;19924;-78
2023/06/30 08:34:04;;;;;;;;;;;19.30;99.90;;;;;;5076832;28;19966;-79
2023/06/30 08:36:30;;;;;;;;;;;19.40;99.90;;;;;;5094207;28;20380;-82
2023/06/30 08:38:55;;;;;;;;;;;19.60;99.90;;;;;;5093786;28;19973;-80
2023/06/30 08:41:22;;;;;;;;;;;19.60;99.90;;;;;;5093379;28;19946;-81
2023/06/30 08:43:49;;;;;;;;;;;19.50;99.90;;;;;;5092910;28;20317;-81
2023/06/30 08:46:16;;;;;;;;;;;19.30;99.90;;;;;;5075421;28;20356;-81
2023/06/30 08:48:42;;;;;;;;;;;19.30;99.90;;;;;;5093749;28;20369;-78
2023/06/30 08:51:08;;;;;;;;;;;19.60;99.90;;;;;;5093246;28;19920;-82
2023/06/30 08:53:34;;;;;;;;;;;19.80;99.90;;;;;;5093520;28;19927;-78
2023/06/30 08:55:59;;;;;;;;;;;19.90;99.90;;;;;;5093740;28;19920;-79
2023/06/30 08:58:26;;;;;;;;;;;19.80;99.90;;;;;;5093544;28;19930;-80
2023/06/30 09:00:55;;;;;;;;;;;19.50;99.90;;;;;;5094483;28;20277;-81
2023/06/30 09:03:21;;;;;;;;;;;19.30;99.90;;;;;;5094593;28;19919;-80
2023/06/30 09:05:47;;;;;;;;;;;19.00;99.90;;;;;;5093033;28;19920;-78
2023/06/30 09:08:16;;;;;;;;;;;18.80;99.90;;;;;;5076020;28;19952;-80
2023/06/30 09:10:42;;;;;;;;;;;18.80;99.90;;;;;;5092775;28;20014;-77
2023/06/30 09:13:08;;;;;;;;;;;19.00;99.90;;;;;;5092371;28;19916;-79
2023/06/30 09:15:34;;;;;;;;;;;19.30;99.90;;;;;;5076123;28;19927;-78
2023/06/30 09:17:59;;;;;;;;;;;19.70;99.90;;;;;;5092492;28;20284;-78
2023/06/30 09:20:25;;;;;;;;;;;20.00;99.90;;;;;;5092547;28;19919;-78
2023/06/30 09:22:50;;;;;;;;;;;19.90;99.90;;;;;;5059088;28;19916;-78
2023/06/30 09:25:25;;;;;;;;;;;19.80;99.90;;;;;;5092299;28;19926;-78
2023/06/30 09:27:51;;;;;;;;;;;19.50;99.90;;;;;;5092780;28;19923;-82
2023/06/30 09:30:17;;;;;;;;;;;19.30;99.90;;;;;;5092338;28;19920;-79
2023/06/30 09:32:42;;;;;;;;;;;19.30;99.90;;;;;;5092579;28;19916;-80
2023/06/30 09:35:08;;;;;;;;;;;19.60;99.90;;;;;;5092050;28;19931;-77
2023/06/30 09:37:41;;;;;;;;;;;20.00;99.90;;;;;;5092306;28;19916;-78
2023/06/30 09:40:12;;;;;;;;;;;20.20;99.90;;;;;;5093059;28;19951;-76
2023/06/30 09:42:40;;;;;;;;;;;20.30;99.90;;;;;;5092125;28;19920;-78
2023/06/30 09:45:05;;;;;;;;;;;20.20;99.90;;;;;;5108878;28;19916;-78
2023/06/30 09:47:31;;;;;;;;;;;20.20;99.90;;;;;;5092096;28;19976;-79
2023/06/30 09:49:57;;;;;;;;;;;20.40;99.90;;;;;;5091683;28;20000;-77
2023/06/30 09:52:26;;;;;;;;;;;20.50;99.90;;;;;;5091482;28;19920;-80
2023/06/30 09:54:51;;;;;;;;;;;20.70;99.90;;;;;;5092534;28;19920;-81
2023/06/30 09:57:17;;;;;;;;;;;21.00;99.90;;;;;;5108250;28;19927;-79
2023/06/30 09:59:47;;;;;;;;;;;21.10;99.90;;;;;;5091625;28;19974;-79
2023/06/30 10:02:13;;;;;;;;;;;20.80;99.90;;;;;;5091612;28;19923;-78
2023/06/30 10:04:39;;;;;;;;;;;20.40;99.90;;;;;;5091956;28;19954;-80
2023/06/30 10:07:05;;;;;;;;;;;20.30;99.90;;;;;;5091603;28;19958;-80
2023/06/30 10:09:32;;;;;;;;;;;20.40;99.90;;;;;;5091639;28;20388;-80
2023/06/30 10:11:58;;;;;;;;;;;20.70;99.90;;;;;;5074730;28;19920;-79
2023/06/30 10:14:27;;;;;;;;;;;20.90;99.90;;;;;;5091430;28;19916;-77
2023/06/30 10:16:56;;;;;;;;;;;21.00;99.70;;;;;;5074509;28;19920;-80
2023/06/30 10:19:22;;;;;;;;;;;21.10;99.00;;;;;;5125263;27;20036;-78
2023/06/30 10:21:49;;;;;;;;;;;21.30;99.40;;;;;;5091509;28;19924;-82
2023/06/30 10:24:17;;;;;;;;;;;21.20;99.40;;;;;;5091373;28;19922;-77
2023/06/30 10:26:42;;;;;;;;;;;21.00;99.00;;;;;;5074309;28;19923;-78
2023/06/30 10:29:08;;;;;;;;;;;20.70;99.30;;;;;;5074281;28;19924;-80
2023/06/30 10:31:34;;;;;;;;;;;20.50;99.80;;;;;;5092531;28;19920;-81
2023/06/30 10:34:06;;;;;;;;;;;20.40;98.80;;;;;;5091982;28;19923;-79
2023/06/30 10:36:37;;;;;;;;;;;20.50;99.90;;;;;;5089087;28;19927;-79
2023/06/30 10:39:03;;;;;;;;;;;20.90;99.90;;;;;;5054495;28;20632;-77
2023/06/30 10:41:29;;;;;;;;;;;21.40;99.90;;;;;;5071258;28;19916;-80
2023/06/30 10:44:07;;;;;;;;;;;21.60;99.90;;;;;;5070516;28;19921;-79
2023/06/30 10:46:40;;;;;;;;;;;21.60;99.50;;;;;;5087823;28;19920;-77
2023/06/30 10:49:05;;;;;;;;;;;21.50;98.50;;;;;;5070653;28;20387;-82
2023/06/30 10:51:35;;;;;;;;;;;21.80;97.50;;;;;;5072196;28;19916;-80
2023/06/30 10:54:00;;;;;;;;;;;21.90;96.70;;;;;;5070859;28;19917;-80
2023/06/30 10:56:27;;;;;;;;;;;22.00;96.50;;;;;;5070142;28;20689;-80
2023/06/30 10:58:55;;;;;;;;;;;22.10;95.80;;;;;;5071576;28;20031;-83
2023/06/30 11:01:20;;;;;;;;;;;22.20;95.40;;;;;;5069998;28;20361;-79
2023/06/30 11:03:56;;;;;;;;;;;22.10;94.40;;;;;;5070909;28;19969;-80
2023/06/30 11:06:22;;;;;;;;;;;21.90;96.50;;;;;;5070436;28;19920;-79
2023/06/30 11:09:00;;;;;;;;;;;21.90;95.50;;;;;;5070499;28;20258;-78
2023/06/30 11:11:29;;;;;;;;;;;21.80;94.80;;;;;;5103782;28;20273;-79
2023/06/30 11:14:05;;;;;;;;;;;21.90;95.10;;;;;;5103138;28;19989;-77
2023/06/30 11:16:30;;;;;;;;;;;21.90;95.10;;;;;;5090257;28;19923;-78
2023/06/30 11:19:02;;;;;;;;;;;21.70;94.70;;;;;;5073501;28;19920;-79
2023/06/30 11:21:29;;;;;;;;;;;21.70;94.60;;;;;;5073428;28;20697;-79
2023/06/30 11:23:56;;;;;;;;;;;21.50;93.90;;;;;;5125038;27;20379;-79
2023/06/30 11:26:22;;;;;;;;;;;21.40;94.50;;;;;;5073774;28;20238;-76
2023/06/30 11:28:48;;;;;;;;;;;21.40;93.70;;;;;;5091513;28;19931;-78
2023/06/30 11:31:14;;;;;;;;;;;21.50;95.00;;;;;;5124123;27;19916;-78
2023/06/30 11:33:40;;;;;;;;;;;21.50;94.00;;;;;;5074269;28;20679;-76
2023/06/30 11:36:11;;;;;;;;;;;21.60;94.60;;;;;;5090522;28;20316;-81
2023/06/30 11:38:50;;;;;;;;;;;22.00;94.60;;;;;;5091204;28;19924;-80
2023/06/30 11:41:19;;;;;;;;;;;22.50;94.00;;;;;;5073821;28;20020;-78
2023/06/30 11:43:49;;;;;;;;;;;23.00;93.00;;;;;;5090383;28;19977;-80
2023/06/30 11:46:15;;;;;;;;;;;23.20;92.70;;;;;;5090150;28;19916;-80
2023/06/30 11:48:40;;;;;;;;;;;23.50;91.80;;;;;;5090689;28;19926;-77
2023/06/30 11:51:13;;;;;;;;;;;23.60;90.20;;;;;;5090247;28;19985;-79
2023/06/30 11:53:48;;;;;;;;;;;23.50;91.50;;;;;;5073631;28;20368;-78
2023/06/30 11:56:13;;;;;;;;;;;23.60;89.80;;;;;;5090642;28;20280;-80
2023/06/30 11:58:43;;;;;;;;;;;23.80;90.60;;;;;;5073784;28;19920;-80
2023/06/30 12:01:09;;;;;;;;;;;23.90;88.80;;;;;;5090847;28;20290;-79
2023/06/30 12:03:35;;;;;;;;;;;23.80;88.50;;;;;;5090399;28;20018;-80
2023/06/30 12:06:01;;;;;;;;;;;23.80;86.30;;;;;;5090876;28;20006;-78
2023/06/30 12:08:27;;;;;;;;;;;23.70;85.70;;;;;;5089949;28;19982;-79
2023/06/30 12:10:52;;;;;;;;;;;23.70;87.60;;;;;;5091702;28;20000;-80
2023/06/30 12:13:19;;;;;;;;;;;23.80;86.10;;;;;;5090048;28;19927;-76
2023/06/30 12:15:46;;;;;;;;;;;23.80;83.70;;;;;;5124423;28;19965;-79
2023/06/30 12:18:12;;;;;;;;;;;23.70;83.30;;;;;;5089924;28;20262;-77
2023/06/30 12:20:38;;;;;;;;;;;23.60;84.20;;;;;;5074335;28;19935;-78
2023/06/30 12:23:05;;;;;;;;;;;23.60;83.30;;;;;;5077209;28;20022;-81
2023/06/30 12:25:33;;;;;;;;;;;23.80;83.20;;;;;;5093769;28;19927;-81
2023/06/30 12:28:01;;;;;;;;;;;24.00;82.40;;;;;;5076687;28;20028;-80
2023/06/30 12:30:27;;;;;;;;;;;24.10;80.40;;;;;;5093513;28;19924;-79
2023/06/30 12:32:57;;;;;;;;;;;24.30;81.70;;;;;;5095480;28;19931;-81
2023/06/30 12:35:27;;;;;;;;;;;24.30;77.60;;;;;;5093147;28;20365;-81
2023/06/30 12:37:52;;;;;;;;;;;24.00;77.00;;;;;;5093916;28;19923;-79
2023/06/30 12:40:19;;;;;;;;;;;23.90;77.70;;;;;;5093461;28;19927;-80
2023/06/30 12:42:46;;;;;;;;;;;23.80;77.80;;;;;;5060648;28;20010;-79
2023/06/30 12:45:13;;;;;;;;;;;23.50;77.20;;;;;;5093280;28;19924;-81
2023/06/30 12:47:39;;;;;;;;;;;23.30;78.60;;;;;;5076577;28;20284;-81
2023/06/30 12:50:06;;;;;;;;;;;23.10;79.20;;;;;;5076825;28;19916;-81
2023/06/30 12:52:31;;;;;;;;;;;22.90;79.00;;;;;;5076090;28;19922;-81
2023/06/30 12:54:57;;;;;;;;;;;22.70;80.20;;;;;;5076783;28;19920;-81
2023/06/30 12:57:22;;;;;;;;;;;23.00;80.40;;;;;;5059384;28;19920;-80
2023/06/30 12:59:48;;;;;;;;;;;23.50;79.70;;;;;;5095423;28;19924;-80
2023/06/30 13:02:14;;;;;;;;;;;24.10;81.30;;;;;;5094935;28;19943;-80
2023/06/30 13:04:39;;;;;;;;;;;24.30;78.40;;;;;;5093391;28;20287;-81
2023/06/30 13:07:05;;;;;;;;;;;24.30;76.30;;;;;;5093918;28;19916;-83
2023/06/30 13:09:31;;;;;;;;;;;24.30;75.20;;;;;;5093185;28;20010;-78
2023/06/30 13:11:57;;;;;;;;;;;24.50;78.30;;;;;;5093102;28;19916;-80
2023/06/30 13:14:22;;;;;;;;;;;24.80;79.00;;;;;;5075906;28;20006;-80
2023/06/30 13:16:48;;;;;;;;;;;25.20;77.70;;;;;;5076783;28;20010;-79
2023/06/30 13:19:13;;;;;;;;;;;25.50;79.90;;;;;;5093042;28;20320;-80
2023/06/30 13:21:39;;;;;;;;;;;25.70;80.60;;;;;;5092426;28;19994;-79
2023/06/30 13:24:05;;;;;;;;;;;25.50;75.30;;;;;;5092664;28;19916;-81
2023/06/30 13:26:32;;;;;;;;;;;25.00;74.60;;;;;;5092677;28;19920;-78
2023/06/30 13:28:58;;;;;;;;;;;24.60;76.80;;;;;;5092883;28;20593;-77
2023/06/30 13:31:24;;;;;;;;;;;24.50;77.10;;;;;;5075216;28;19916;-80
2023/06/30 13:33:49;;;;;;;;;;;24.60;78.70;;;;;;5091960;28;20019;-80
2023/06/30 13:36:17;;;;;;;;;;;24.80;76.20;;;;;;5092661;28;19953;-78
2023/06/30 13:38:43;;;;;;;;;;;24.90;77.90;;;;;;5094066;28;19935;-82
2023/06/30 13:41:09;;;;;;;;;;;24.90;76.20;;;;;;5092509;28;19924;-78
2023/06/30 13:43:35;;;;;;;;;;;24.90;77.10;;;;;;5091920;28;19920;-79
2023/06/30 13:46:05;;;;;;;;;;;24.80;74.20;;;;;;5075717;28;19920;-79
2023/06/30 13:48:31;;;;;;;;;;;24.40;72.50;;;;;;5092919;28;20002;-79
2023/06/30 13:50:56;;;;;;;;;;;24.40;72.00;;;;;;5125779;27;20034;-79
2023/06/30 13:53:22;;;;;;;;;;;24.20;72.70;;;;;;5109282;28;20014;-78
2023/06/30 13:55:47;;;;;;;;;;;24.00;73.50;;;;;;5127210;27;19920;-79
2023/06/30 13:58:13;;;;;;;;;;;23.70;75.30;;;;;;5126331;27;19919;-77
2023/06/30 14:00:39;;;;;;;;;;;23.70;76.20;;;;;;5126016;27;19920;-78
2023/06/30 14:03:05;;;;;;;;;;;23.70;77.60;;;;;;5072826;28;19923;-78
2023/06/30 14:05:30;;;;;;;;;;;23.90;76.50;;;;;;5105259;28;19942;-76
2023/06/30 14:07:56;;;;;;;;;;;24.00;75.60;;;;;;5071813;28;19920;-79
2023/06/30 14:10:22;;;;;;;;;;;24.00;74.60;;;;;;5105155;28;20007;-79
2023/06/30 14:12:47;;;;;;;;;;;24.10;74.80;;;;;;5088730;28;19916;-81